Terminal Aerodrome Forecast
Issued by NWS

Home | Current Version | Previous Version | Graphics & Text | Print | Product List | Glossary On
Versions: 1 2 3 4 5 6 7 8 9 10 11 12
893
FTUS43 KBIS 270528
TAFMOT
TAF
KMOT 270528Z 2706/2806 20007KT P6SM VCSH BKN090 OVC120
     FM271300 23005KT P6SM SCT080
     FM271800 23012KT P6SM SCT050
     FM280300 17006KT P6SM FEW250=

USA.gov is the U.S. government's official web portal to all federal, state and local government web resources and services.